createdAt,value
2022-08-23T00:02:04.013Z,7.63
2022-08-23T00:04:13.179Z,11.30
2022-08-23T00:06:17.411Z,6.78
2022-08-23T00:08:21.581Z,5.30
2022-08-23T00:10:24.914Z,9.93
2022-08-23T00:12:28.242Z,9.70
2022-08-23T00:14:35.830Z,6.22
2022-08-23T00:16:39.516Z,7.90
2022-08-23T00:18:47.697Z,6.53
2022-08-23T00:20:52.729Z,4.95
2022-08-23T00:22:56.304Z,8.48
2022-08-23T00:24:59.657Z,5.88
2022-08-23T00:27:07.451Z,5.00
2022-08-23T00:29:10.900Z,6.97
2022-08-23T00:31:14.249Z,6.70
2022-08-23T00:33:17.797Z,8.65
2022-08-23T00:35:26.948Z,10.57
2022-08-23T00:37:32.538Z,10.82
2022-08-23T00:39:36.084Z,8.57
2022-08-23T00:41:39.731Z,17.50
2022-08-23T00:44:01.107Z,11.20
2022-08-23T00:46:29.642Z,14.15
2022-08-23T00:48:33.996Z,12.35
2022-08-23T00:50:45.088Z,8.60
2022-08-23T00:52:54.332Z,7.93
2022-08-23T00:54:58.421Z,9.98
2022-08-23T00:57:05.798Z,8.98
2022-08-23T00:59:09.034Z,10.20
2022-08-23T01:01:12.531Z,13.85
2022-08-23T01:03:21.269Z,14.27
2022-08-23T01:05:29.028Z,6.68
2022-08-23T01:07:49.000Z,10.52
2022-08-23T01:09:54.838Z,16.08
2022-08-23T01:12:04.670Z,12.70
2022-08-23T01:14:13.351Z,10.13
2022-08-23T01:16:22.778Z,13.05
2022-08-23T01:18:29.747Z,9.32
2022-08-23T01:20:43.995Z,15.57
2022-08-23T01:22:56.548Z,15.93
2022-08-23T01:25:07.382Z,10.48
2022-08-23T01:27:17.632Z,14.10
2022-08-23T01:29:20.879Z,12.38
2022-08-23T01:31:25.576Z,11.18
2022-08-23T01:33:29.090Z,12.48
2022-08-23T01:35:37.974Z,13.07
2022-08-23T01:37:41.955Z,16.35
2022-08-23T01:39:45.440Z,13.77
2022-08-23T01:41:51.482Z,9.18
2022-08-23T01:43:55.280Z,11.05
2022-08-23T01:46:09.690Z,13.75
2022-08-23T01:48:14.760Z,12.88
2022-08-23T01:50:18.236Z,14.45
2022-08-23T01:52:21.675Z,11.10
2022-08-23T01:54:25.416Z,9.52
2022-08-23T01:56:38.816Z,11.15
2022-08-23T01:58:46.484Z,12.07
2022-08-23T02:00:50.016Z,12.50
2022-08-23T02:02:54.373Z,12.95
2022-08-23T02:04:57.836Z,12.85
2022-08-23T02:07:01.548Z,15.20
2022-08-23T02:09:04.694Z,19.00
2022-08-23T02:11:13.771Z,13.15
2022-08-23T02:13:17.244Z,15.57
2022-08-23T02:15:22.095Z,15.15
2022-08-23T02:17:25.571Z,15.40
2022-08-23T02:19:28.818Z,15.57
2022-08-23T02:21:33.122Z,14.45
2022-08-23T02:23:36.343Z,16.63
2022-08-23T02:25:40.418Z,19.77
2022-08-23T02:27:44.281Z,16.63
2022-08-23T02:29:51.668Z,17.38
2022-08-23T02:31:58.620Z,18.35
2022-08-23T02:34:04.005Z,22.92
2022-08-23T02:36:08.547Z,20.15
2022-08-23T02:38:14.071Z,18.95
2022-08-23T02:40:17.526Z,21.20
2022-08-23T02:42:21.235Z,17.15
2022-08-23T02:44:25.676Z,19.65
2022-08-23T02:46:29.519Z,16.83
2022-08-23T02:48:34.765Z,20.00
2022-08-23T02:50:40.246Z,23.55
2022-08-23T02:52:43.458Z,16.67
2022-08-23T02:54:48.866Z,18.92
2022-08-23T02:56:52.884Z,22.15
2022-08-23T02:58:56.421Z,19.48
2022-08-23T03:01:01.083Z,20.67
2022-08-23T03:03:04.909Z,22.90
2022-08-23T03:05:11.198Z,19.15
2022-08-23T03:07:14.620Z,16.92
2022-08-23T03:09:17.975Z,20.30
2022-08-23T03:11:22.855Z,17.50
2022-08-23T03:13:28.346Z,16.92
2022-08-23T03:15:32.298Z,22.77
2022-08-23T03:17:35.720Z,19.95
2022-08-23T03:19:42.763Z,15.32
2022-08-23T03:21:47.537Z,23.30
2022-08-23T03:23:53.353Z,18.17
2022-08-23T03:25:58.674Z,21.23
2022-08-23T03:28:06.320Z,16.02
2022-08-23T03:30:19.272Z,23.02
2022-08-23T03:32:30.675Z,18.73
2022-08-23T03:34:34.735Z,22.52
2022-08-23T03:36:38.364Z,19.63
2022-08-23T03:38:43.423Z,24.10
2022-08-23T03:40:47.268Z,19.38
2022-08-23T03:42:50.868Z,17.70
2022-08-23T03:45:02.227Z,15.05
2022-08-23T03:47:07.224Z,19.45
2022-08-23T03:49:11.366Z,24.15
2022-08-23T03:51:29.378Z,26.80
2022-08-23T03:53:34.214Z,21.45
2022-08-23T03:55:42.488Z,20.75
2022-08-23T03:57:49.928Z,15.55
2022-08-23T03:59:55.488Z,27.98
2022-08-23T04:02:00.259Z,14.60
2022-08-23T04:04:05.392Z,21.27
2022-08-23T04:06:09.783Z,17.20
2022-08-23T04:08:14.008Z,13.38
2022-08-23T04:10:22.177Z,21.00
2022-08-23T04:12:29.941Z,19.42
2022-08-23T04:14:33.548Z,18.38
2022-08-23T04:16:37.899Z,17.40
2022-08-23T04:18:42.166Z,19.33
2022-08-23T04:20:45.622Z,16.63
2022-08-23T04:22:53.037Z,17.17
2022-08-23T04:24:56.909Z,16.67
2022-08-23T04:27:00.377Z,20.17
2022-08-23T04:29:05.335Z,26.00
2022-08-23T04:31:09.215Z,18.05
2022-08-23T04:33:18.201Z,17.42
2022-08-23T04:35:22.810Z,17.92
2022-08-23T04:37:28.189Z,16.58
2022-08-23T04:39:53.946Z,15.52
2022-08-23T04:42:15.688Z,16.17
2022-08-23T04:44:21.961Z,15.85
2022-08-23T04:46:26.824Z,13.90
2022-08-23T04:48:31.783Z,14.73
2022-08-23T04:50:36.155Z,12.80
2022-08-23T04:52:59.824Z,12.70
2022-08-23T04:55:04.758Z,12.95
2022-08-23T04:57:22.954Z,18.05
2022-08-23T04:59:27.730Z,13.35
2022-08-23T05:01:31.177Z,8.50
2022-08-23T05:03:34.867Z,14.60
2022-08-23T05:05:38.692Z,12.73
2022-08-23T05:07:43.248Z,17.58
2022-08-23T05:09:47.408Z,13.88
2022-08-23T05:11:50.947Z,10.98
2022-08-23T05:13:54.766Z,9.52
2022-08-23T05:16:00.417Z,13.93
2022-08-23T05:18:08.286Z,9.73
2022-08-23T05:20:12.824Z,13.60
2022-08-23T05:22:16.163Z,11.40
2022-08-23T05:24:45.360Z,10.02
2022-08-23T05:26:48.863Z,10.10
2022-08-23T05:28:52.480Z,6.93
2022-08-23T05:31:04.246Z,10.80
2022-08-23T05:33:14.362Z,8.13
2022-08-23T05:35:17.843Z,7.25
2022-08-23T05:37:22.606Z,11.30
2022-08-23T05:39:33.007Z,9.77
2022-08-23T05:41:41.765Z,7.85
2022-08-23T05:43:47.568Z,5.90
2022-08-23T05:46:02.522Z,7.65
2022-08-23T05:48:08.764Z,9.02
2022-08-23T05:50:20.007Z,7.43
2022-08-23T05:52:23.499Z,13.68
2022-08-23T05:54:27.558Z,11.68
2022-08-23T05:56:53.788Z,11.25
2022-08-23T05:59:00.018Z,9.77
2022-08-23T06:01:06.651Z,11.93
2022-08-23T06:03:09.994Z,8.23
2022-08-23T06:05:14.019Z,12.80
2022-08-23T06:07:18.407Z,6.00
2022-08-23T06:09:21.941Z,7.30
2022-08-23T06:11:28.473Z,13.18
2022-08-23T06:13:32.996Z,11.50
2022-08-23T06:15:36.554Z,9.43
2022-08-23T06:17:42.138Z,7.97
2022-08-23T06:19:45.986Z,7.95
2022-08-23T06:21:57.993Z,6.97
2022-08-23T06:24:07.370Z,11.70
2022-08-23T06:26:19.499Z,5.57
2022-08-23T06:28:25.620Z,7.63
2022-08-23T06:30:31.691Z,12.65
2022-08-23T06:32:38.138Z,10.52
2022-08-23T06:35:38.320Z,9.23
2022-08-23T06:37:33.329Z,13.57
2022-08-23T06:39:59.782Z,10.70
2022-08-23T06:42:40.212Z,10.73
2022-08-23T06:44:45.509Z,9.80
2022-08-23T06:46:54.274Z,6.47
2022-08-23T06:48:59.704Z,11.02
2022-08-23T06:51:04.779Z,9.90
2022-08-23T06:53:26.697Z,14.18
2022-08-23T06:55:53.244Z,8.35
2022-08-23T06:58:00.405Z,10.38
2022-08-23T07:00:21.965Z,13.02
2022-08-23T07:02:52.428Z,13.88
2022-08-23T07:05:28.408Z,8.13
2022-08-23T07:07:45.987Z,6.80
2022-08-23T07:09:49.925Z,8.15
2022-08-23T07:11:56.177Z,5.32
2022-08-23T07:14:01.093Z,12.70
2022-08-23T07:16:05.353Z,10.75
2022-08-23T07:18:13.541Z,6.25
2022-08-23T07:20:17.581Z,15.32
2022-08-23T07:22:22.024Z,9.15
2022-08-23T07:24:32.735Z,3.83
2022-08-23T07:26:39.468Z,8.48
2022-08-23T07:28:44.348Z,6.97
2022-08-23T07:30:48.084Z,21.40
2022-08-23T07:32:52.154Z,7.85
2022-08-23T07:34:58.465Z,9.13
2022-08-23T07:37:04.374Z,9.60
2022-08-23T07:39:16.316Z,7.65
2022-08-23T07:41:22.261Z,6.55
2022-08-23T07:43:26.185Z,6.38
2022-08-23T07:45:30.545Z,6.65
2022-08-23T07:47:37.399Z,5.97
2022-08-23T07:49:43.014Z,6.53
2022-08-23T07:51:49.897Z,11.13
2022-08-23T07:53:54.730Z,4.93
2022-08-23T07:55:59.081Z,8.38
2022-08-23T07:58:28.252Z,6.13
2022-08-23T08:00:46.665Z,4.00
2022-08-23T08:03:13.875Z,7.10
2022-08-23T08:05:37.702Z,6.43
2022-08-23T08:07:41.634Z,6.25
2022-08-23T08:09:45.433Z,8.55
2022-08-23T08:11:52.508Z,4.97
2022-08-23T08:14:04.488Z,8.98
2022-08-23T08:16:09.793Z,6.45
2022-08-23T08:18:17.220Z,7.05
2022-08-23T08:20:39.326Z,7.05
2022-08-23T08:23:08.633Z,7.07
2022-08-23T08:25:12.703Z,7.18
2022-08-23T08:27:17.464Z,4.07
2022-08-23T08:29:22.671Z,4.15
2022-08-23T08:31:28.774Z,7.72
2022-08-23T08:33:34.403Z,4.53
2022-08-23T08:35:38.797Z,5.63
2022-08-23T08:37:43.073Z,3.85
2022-08-23T08:39:46.801Z,3.25
2022-08-23T08:42:05.473Z,5.47
2022-08-23T08:44:24.275Z,5.00
2022-08-23T08:46:46.470Z,5.65
2022-08-23T08:48:55.812Z,5.43
2022-08-23T08:51:05.085Z,6.15
2022-08-23T08:53:13.758Z,2.75
2022-08-23T08:55:43.039Z,3.30
2022-08-23T08:57:49.380Z,3.17
2022-08-23T09:00:00.521Z,5.65
2022-08-23T09:02:32.041Z,3.55
2022-08-23T09:04:34.982Z,4.65
2022-08-23T09:06:51.217Z,2.75
2022-08-23T09:09:17.333Z,5.68
2022-08-23T09:11:35.260Z,5.40
2022-08-23T09:14:07.622Z,3.95
2022-08-23T09:16:23.876Z,3.58
2022-08-23T09:18:33.566Z,2.25
2022-08-23T09:20:38.947Z,8.57
2022-08-23T09:22:46.027Z,3.78
2022-08-23T09:25:00.111Z,3.30
2022-08-23T09:27:12.385Z,4.85
2022-08-23T09:29:23.699Z,5.03
2022-08-23T09:31:42.201Z,1.95
2022-08-23T09:33:48.253Z,3.67
2022-08-23T09:36:20.049Z,3.58
2022-08-23T09:38:30.184Z,4.15
2022-08-23T09:40:42.700Z,6.53
2022-08-23T09:43:05.425Z,3.17
2022-08-23T09:45:29.782Z,5.00
2022-08-23T09:47:44.348Z,3.17
2022-08-23T09:49:52.683Z,3.30
2022-08-23T09:52:01.044Z,1.60
2022-08-23T09:54:09.495Z,8.27
2022-08-23T09:56:17.826Z,2.10
2022-08-23T09:58:25.135Z,2.97
2022-08-23T10:00:34.618Z,3.20
2022-08-23T10:02:38.434Z,3.33
2022-08-23T10:05:00.185Z,2.42
2022-08-23T10:07:25.031Z,1.35
2022-08-23T10:09:33.249Z,1.63
2022-08-23T10:11:48.436Z,2.80
2022-08-23T10:13:52.839Z,1.02
2022-08-23T10:16:06.044Z,2.30
2022-08-23T10:18:27.998Z,2.78
2022-08-23T10:20:42.449Z,2.40
2022-08-23T10:22:53.140Z,0.73
2022-08-23T10:25:18.241Z,1.80
2022-08-23T10:27:49.311Z,6.93
2022-08-23T10:30:02.019Z,1.98
2022-08-23T10:32:18.759Z,3.15
2022-08-23T10:34:46.008Z,2.17
2022-08-23T10:37:10.106Z,2.75
2022-08-23T10:39:21.751Z,1.40
2022-08-23T10:41:40.468Z,2.47
2022-08-23T10:43:52.252Z,10.23
2022-08-23T10:46:01.970Z,1.98
2022-08-23T10:48:27.133Z,9.27
2022-08-23T10:50:41.109Z,2.10
2022-08-23T10:52:52.997Z,2.85
2022-08-23T10:55:06.598Z,2.90
2022-08-23T10:57:16.508Z,2.78
2022-08-23T10:59:24.741Z,5.43
2022-08-23T11:01:36.887Z,2.90
2022-08-23T11:03:46.404Z,2.35
2022-08-23T11:06:22.795Z,4.20
2022-08-23T11:08:36.913Z,2.50
2022-08-23T11:10:55.667Z,6.07
2022-08-23T11:13:21.097Z,3.70
2022-08-23T11:15:34.463Z,6.68
2022-08-23T11:17:56.326Z,3.25
2022-08-23T11:20:03.304Z,8.13
2022-08-23T11:22:18.735Z,8.73
2022-08-23T11:24:52.270Z,3.75
2022-08-23T11:27:08.113Z,2.08
2022-08-23T11:29:31.244Z,3.28
2022-08-23T11:32:00.828Z,6.22
2022-08-23T11:34:11.139Z,5.25
2022-08-23T11:36:21.783Z,3.67
2022-08-23T11:39:05.442Z,7.80
2022-08-23T11:41:25.156Z,3.17
2022-08-23T11:43:34.419Z,3.47
2022-08-23T11:45:46.640Z,5.25
2022-08-23T11:48:07.462Z,5.95
2022-08-23T11:50:28.197Z,6.03
2022-08-23T11:52:51.451Z,3.83
2022-08-23T11:55:18.640Z,2.13
2022-08-23T11:57:36.510Z,2.80
2022-08-23T11:59:55.371Z,1.23
2022-08-23T12:01:59.540Z,1.23
2022-08-23T12:04:11.337Z,2.72
2022-08-23T12:06:31.933Z,3.13
2022-08-23T12:08:58.202Z,8.60
2022-08-23T12:11:06.564Z,5.20
2022-08-23T12:13:33.339Z,5.53
2022-08-23T12:16:16.910Z,3.30
2022-08-23T12:18:25.046Z,5.53
2022-08-23T12:20:32.552Z,2.35
2022-08-23T12:22:58.419Z,2.88
2022-08-23T12:25:05.949Z,3.17
2022-08-23T12:27:28.018Z,6.22
2022-08-23T12:29:48.646Z,2.85
2022-08-23T12:32:00.003Z,2.38
2022-08-23T12:34:13.734Z,6.05
2022-08-23T12:36:23.079Z,4.22
2022-08-23T12:38:38.195Z,2.40
2022-08-23T12:40:44.064Z,3.53
2022-08-23T12:42:48.186Z,3.65
2022-08-23T12:45:03.799Z,2.63
2022-08-23T12:47:13.442Z,5.63
2022-08-23T12:49:27.428Z,5.10
2022-08-23T12:51:31.329Z,5.30
2022-08-23T12:53:42.648Z,4.82
2022-08-23T12:55:52.804Z,2.17
2022-08-23T12:57:58.548Z,2.97
2022-08-23T13:00:17.332Z,8.35
2022-08-23T13:02:26.948Z,2.63
2022-08-23T13:04:32.968Z,1.05
2022-08-23T13:06:42.609Z,2.60
2022-08-23T13:08:49.288Z,6.55
2022-08-23T13:10:54.058Z,3.35
2022-08-23T13:12:57.946Z,11.80
2022-08-23T13:15:03.054Z,9.05
2022-08-23T13:17:33.239Z,2.38
2022-08-23T13:19:36.799Z,2.63
2022-08-23T13:21:40.396Z,5.85
2022-08-23T13:23:44.339Z,11.40
2022-08-23T13:25:47.813Z,12.35
2022-08-23T13:27:55.424Z,12.70
2022-08-23T13:30:01.226Z,11.27
2022-08-23T13:32:06.854Z,9.75
2022-08-23T13:34:11.834Z,15.50
2022-08-23T13:36:17.842Z,13.98
2022-08-23T13:38:27.281Z,9.70
2022-08-23T13:40:33.517Z,3.38
2022-08-23T13:42:43.036Z,7.85
2022-08-23T13:44:46.728Z,2.47
2022-08-23T13:46:50.659Z,4.70
2022-08-23T13:49:01.324Z,1.20
2022-08-23T13:51:30.654Z,3.17
2022-08-23T13:53:34.221Z,7.95
2022-08-23T13:55:44.838Z,7.90
2022-08-23T13:57:48.635Z,9.95
2022-08-23T13:59:55.176Z,4.72
2022-08-23T14:02:01.621Z,3.20
2022-08-23T14:04:05.678Z,2.88
2022-08-23T14:06:11.074Z,8.30
2022-08-23T14:08:16.240Z,5.82
2022-08-23T14:10:21.931Z,3.88
2022-08-23T14:12:28.829Z,2.30
2022-08-23T14:14:36.280Z,3.72
2022-08-23T14:16:40.684Z,1.40
2022-08-23T14:21:08.419Z,8.05
2022-08-23T14:23:12.598Z,8.38
2022-08-23T14:25:17.758Z,8.20
2022-08-23T14:27:21.559Z,4.93
2022-08-23T14:29:28.614Z,2.80
2022-08-23T14:31:32.704Z,3.47
2022-08-23T14:33:36.232Z,7.60
2022-08-23T14:35:39.689Z,8.18
2022-08-23T14:40:09.536Z,1.63
2022-08-23T14:42:18.205Z,5.75
2022-08-23T14:44:21.813Z,1.92
2022-08-23T14:46:25.457Z,4.38
2022-08-23T14:48:29.662Z,3.03
2022-08-23T14:50:33.458Z,1.42
2022-08-23T14:52:38.435Z,3.30
2022-08-23T14:54:42.022Z,5.65
2022-08-23T14:56:45.912Z,3.08
2022-08-23T14:58:51.601Z,3.80
2022-08-23T15:00:55.344Z,3.50
2022-08-23T15:03:01.289Z,2.60
2022-08-23T15:05:06.493Z,3.42
2022-08-23T15:07:18.603Z,16.17
2022-08-23T15:09:22.883Z,3.10
2022-08-23T15:13:55.430Z,3.92
2022-08-23T15:16:01.376Z,2.28
2022-08-23T15:18:09.858Z,2.85
2022-08-23T15:20:13.519Z,2.17
2022-08-23T15:22:18.627Z,3.05
2022-08-23T15:24:25.523Z,2.17
2022-08-23T15:26:32.829Z,4.53
2022-08-23T15:28:36.660Z,3.22
2022-08-23T15:30:42.136Z,1.85
2022-08-23T15:32:52.731Z,9.40
2022-08-23T15:35:00.456Z,4.47
2022-08-23T15:37:04.220Z,7.47
2022-08-23T15:39:07.898Z,2.55
2022-08-23T15:41:12.445Z,1.70
2022-08-23T15:43:16.351Z,3.70
2022-08-23T15:45:20.025Z,10.13
2022-08-23T15:47:36.603Z,3.80
2022-08-23T15:49:40.431Z,4.13
2022-08-23T15:51:44.428Z,6.30
2022-08-23T15:53:48.698Z,4.38
2022-08-23T15:55:53.097Z,4.60
2022-08-23T15:57:58.957Z,2.33
2022-08-23T16:00:02.760Z,2.45
2022-08-23T16:04:20.780Z,21.85
2022-08-23T16:06:24.430Z,4.47
2022-08-23T16:08:30.664Z,3.03
2022-08-23T16:10:34.748Z,5.15
2022-08-23T16:12:38.451Z,3.03
2022-08-23T16:14:42.031Z,2.92
2022-08-23T16:16:46.946Z,1.92
2022-08-23T16:18:53.423Z,3.95
2022-08-23T16:20:58.705Z,8.05
2022-08-23T16:23:02.433Z,2.00
2022-08-23T16:25:07.824Z,2.38
2022-08-23T16:27:11.946Z,2.67
2022-08-23T16:29:17.810Z,10.32
2022-08-23T16:31:21.976Z,4.85
2022-08-23T16:33:42.973Z,7.22
2022-08-23T16:35:46.740Z,4.57
2022-08-23T16:37:52.014Z,5.07
2022-08-23T16:39:55.880Z,5.85
2022-08-23T16:42:00.090Z,7.72
2022-08-23T16:44:03.834Z,3.83
2022-08-23T16:46:08.552Z,8.95
2022-08-23T16:48:14.851Z,6.13
2022-08-23T16:50:18.594Z,12.90
2022-08-23T16:52:28.765Z,9.80
2022-08-23T16:54:40.678Z,8.75
2022-08-23T16:56:44.340Z,5.93
2022-08-23T16:58:48.215Z,6.07
2022-08-23T17:00:51.981Z,5.90
2022-08-23T17:02:55.655Z,7.32
2022-08-23T17:04:59.711Z,9.85
2022-08-23T17:07:03.361Z,5.40
2022-08-23T17:09:07.610Z,10.38
2022-08-23T17:11:18.423Z,3.95
2022-08-23T17:13:22.871Z,7.07
2022-08-23T17:15:29.293Z,8.10
2022-08-23T17:17:33.229Z,2.80
2022-08-23T17:19:37.317Z,14.40
2022-08-23T17:21:42.295Z,4.60
2022-08-23T17:23:46.098Z,8.35
2022-08-23T17:25:49.992Z,12.05
2022-08-23T17:27:56.392Z,3.55
2022-08-23T17:30:00.425Z,5.70
2022-08-23T17:32:05.102Z,3.38
2022-08-23T17:34:09.264Z,2.75
2022-08-23T17:36:27.782Z,1.80
2022-08-23T17:38:31.711Z,4.13
2022-08-23T17:40:37.850Z,1.73
2022-08-23T17:42:42.072Z,3.47
2022-08-23T17:44:47.333Z,2.33
2022-08-23T17:46:52.351Z,4.05
2022-08-23T17:48:57.844Z,1.48
2022-08-23T17:51:01.769Z,1.27
2022-08-23T17:53:05.929Z,2.92
2022-08-23T17:55:10.882Z,5.68
2022-08-23T17:57:14.643Z,5.07
2022-08-23T17:59:20.390Z,3.28
2022-08-23T18:01:25.771Z,5.53
2022-08-23T18:03:30.872Z,2.35
2022-08-23T18:05:35.905Z,2.15
2022-08-23T18:07:40.340Z,1.88
2022-08-23T18:09:48.376Z,2.60
2022-08-23T18:11:52.897Z,4.90
2022-08-23T18:13:56.374Z,2.90
2022-08-23T18:16:00.470Z,15.73
2022-08-23T18:18:06.836Z,10.65
2022-08-23T18:20:13.220Z,3.63
2022-08-23T18:22:16.677Z,3.17
2022-08-23T18:24:20.920Z,6.57
2022-08-23T18:26:42.966Z,3.13
2022-08-23T18:28:46.713Z,4.07
2022-08-23T18:30:54.576Z,4.07
2022-08-23T18:32:58.795Z,2.25
2022-08-23T18:35:05.378Z,4.32
2022-08-23T18:37:09.269Z,3.03
2022-08-23T18:39:14.915Z,3.83
2022-08-23T18:41:18.939Z,4.07
2022-08-23T18:43:27.251Z,1.58
2022-08-23T18:45:41.155Z,2.90
2022-08-23T18:47:44.954Z,2.55
2022-08-23T18:49:48.942Z,5.65
2022-08-23T18:51:57.132Z,4.68
2022-08-23T18:54:01.136Z,2.65
2022-08-23T18:56:06.058Z,2.78
2022-08-23T18:58:09.886Z,4.13
2022-08-23T19:00:14.505Z,3.80
2022-08-23T19:02:18.455Z,3.00
2022-08-23T19:04:22.149Z,7.57
2022-08-23T19:06:25.856Z,2.05
2022-08-23T19:08:30.835Z,6.75
2022-08-23T19:10:35.162Z,5.35
2022-08-23T19:12:38.988Z,2.78
2022-08-23T19:14:56.225Z,5.05
2022-08-23T19:17:03.791Z,3.38
2022-08-23T19:19:07.953Z,3.55
2022-08-23T19:21:11.958Z,3.50
2022-08-23T19:23:15.660Z,4.65
2022-08-23T19:25:21.955Z,3.75
2022-08-23T19:27:25.517Z,5.70
2022-08-23T19:29:29.088Z,2.00
2022-08-23T19:31:37.182Z,5.10
2022-08-23T19:33:43.381Z,4.07
2022-08-23T19:35:47.244Z,5.47
2022-08-23T19:37:51.180Z,5.40
2022-08-23T19:39:54.792Z,5.57
2022-08-23T19:42:00.118Z,8.05
2022-08-23T19:44:03.929Z,3.05
2022-08-23T19:46:14.259Z,122.28
2022-08-23T19:48:19.376Z,73.15
2022-08-23T19:50:24.023Z,12.80
2022-08-23T19:52:28.376Z,17.70
2022-08-23T19:54:33.185Z,17.10
2022-08-23T19:56:39.947Z,26.83
2022-08-23T19:58:45.201Z,3.65
2022-08-23T20:00:48.840Z,8.82
2022-08-23T20:02:53.286Z,7.43
2022-08-23T20:04:58.197Z,5.00
2022-08-23T20:07:03.412Z,3.60
2022-08-23T20:09:08.749Z,3.88
2022-08-23T20:11:13.598Z,7.35
2022-08-23T20:13:17.425Z,5.97
2022-08-23T20:15:23.000Z,8.10
2022-08-23T20:17:27.794Z,4.18
2022-08-23T20:19:31.743Z,4.47
2022-08-23T20:21:35.873Z,8.98
2022-08-23T20:23:56.594Z,6.75
2022-08-23T20:26:00.286Z,4.57
2022-08-23T20:28:08.623Z,4.65
2022-08-23T20:30:15.113Z,2.83
2022-08-23T20:32:20.832Z,4.15
2022-08-23T20:34:26.497Z,2.90
2022-08-23T20:36:31.598Z,7.18
2022-08-23T20:38:36.295Z,6.70
2022-08-23T20:40:39.897Z,4.80
2022-08-23T20:42:43.432Z,9.60
2022-08-23T20:44:47.080Z,3.03
2022-08-23T20:46:54.347Z,4.22
2022-08-23T20:49:02.001Z,2.97
2022-08-23T20:51:08.238Z,4.43
2022-08-23T20:53:13.058Z,6.03
2022-08-23T20:55:16.694Z,4.80
2022-08-23T20:57:20.332Z,5.15
2022-08-23T20:59:24.120Z,5.75
2022-08-23T21:01:28.000Z,4.57
2022-08-23T21:03:31.884Z,5.00
2022-08-23T21:05:37.156Z,6.72
2022-08-23T21:07:41.947Z,7.40
2022-08-23T21:09:45.902Z,5.82
2022-08-23T21:11:49.851Z,9.38
2022-08-23T21:13:53.534Z,9.13
2022-08-23T21:15:57.198Z,9.18
2022-08-23T21:18:01.085Z,5.53
2022-08-23T21:20:06.131Z,3.92
2022-08-23T21:22:13.286Z,5.30
2022-08-23T21:24:17.295Z,7.82
2022-08-23T21:26:22.428Z,3.83
2022-08-23T21:28:27.313Z,5.13
2022-08-23T21:30:31.102Z,4.47
2022-08-23T21:32:34.781Z,5.45
2022-08-23T21:34:38.755Z,3.72
2022-08-23T21:36:42.277Z,4.28
2022-08-23T21:38:47.874Z,8.65
2022-08-23T21:40:58.439Z,3.85
2022-08-23T21:43:02.559Z,4.35
2022-08-23T21:45:07.925Z,5.43
2022-08-23T21:47:11.639Z,4.63
2022-08-23T21:49:16.242Z,4.05
2022-08-23T21:51:20.097Z,4.38
2022-08-23T21:53:23.662Z,4.40
2022-08-23T21:55:36.166Z,6.32
2022-08-23T21:57:41.529Z,12.00
2022-08-23T21:59:45.182Z,5.28
2022-08-23T22:01:48.987Z,3.92
2022-08-23T22:03:56.787Z,6.03
2022-08-23T22:06:00.659Z,5.05
2022-08-23T22:08:04.707Z,6.68
2022-08-23T22:10:10.507Z,2.90
2022-08-23T22:12:16.012Z,4.13
2022-08-23T22:14:22.167Z,3.30
2022-08-23T22:16:25.942Z,6.05
2022-08-23T22:18:29.705Z,6.78
2022-08-23T22:20:34.609Z,7.78
2022-08-23T22:22:38.711Z,7.68
2022-08-23T22:24:42.602Z,14.40
2022-08-23T22:26:46.899Z,8.65
2022-08-23T22:28:52.054Z,5.80
2022-08-23T22:30:59.068Z,8.30
2022-08-23T22:33:03.338Z,6.97
2022-08-23T22:35:09.008Z,6.32
2022-08-23T22:37:12.766Z,8.07
2022-08-23T22:39:16.316Z,5.82
2022-08-23T22:41:25.606Z,5.70
2022-08-23T22:43:29.357Z,4.82
2022-08-23T22:45:34.700Z,8.40
2022-08-23T22:47:38.275Z,6.40
2022-08-23T22:49:42.146Z,4.75
2022-08-23T22:51:45.816Z,11.18
2022-08-23T22:53:56.148Z,6.22
2022-08-23T22:56:00.057Z,10.82
2022-08-23T22:58:04.003Z,7.03
2022-08-23T23:00:09.681Z,4.22
2022-08-23T23:02:16.418Z,5.50
2022-08-23T23:04:22.384Z,3.33
2022-08-23T23:06:27.775Z,4.85
2022-08-23T23:08:30.351Z,4.18
2022-08-23T23:10:33.939Z,3.28
2022-08-23T23:12:37.583Z,6.22
2022-08-23T23:14:41.257Z,5.60
2022-08-23T23:16:49.354Z,5.45
2022-08-23T23:19:08.798Z,4.15
2022-08-23T23:21:13.212Z,4.60
2022-08-23T23:23:19.329Z,5.57
2022-08-23T23:25:23.295Z,8.10
2022-08-23T23:27:26.693Z,7.78
2022-08-23T23:29:31.029Z,11.07
2022-08-23T23:31:34.362Z,6.82
2022-08-23T23:33:37.585Z,7.32
2022-08-23T23:35:42.787Z,6.40
2022-08-23T23:37:49.463Z,8.10
2022-08-23T23:39:53.100Z,11.02
2022-08-23T23:41:56.673Z,11.38
2022-08-23T23:44:00.597Z,11.57
2022-08-23T23:46:06.353Z,13.45
2022-08-23T23:48:10.033Z,7.60
2022-08-23T23:50:14.264Z,8.55
2022-08-23T23:52:18.929Z,12.00
2022-08-23T23:54:22.167Z,12.77
2022-08-23T23:56:27.509Z,10.40
2022-08-23T23:58:30.823Z,7.20
